Time;durP1;ratioP1;P1;durP2;ratioP2;P2;SDS_P1;SDS_P2;PMS_P1;PMS_P2;Temp;Humidity;BMP_temperature;BMP_pressure;BME280_temperature;BME280_humidity;BME280_pressure;Samples;Min_cycle;Max_cycle;Signal;HPM_P1;HPM_P2
2023/10/08 00:02:22;;;;;;;7.72;2.53;;;22.10;64.10;23.60;102110.00;;;;5076841;28;20229;-75
2023/10/08 00:04:50;;;;;;;5.57;2.60;;;22.00;64.00;23.60;102104.00;;;;5069497;28;20199;-76
2023/10/08 00:07:21;;;;;;;5.38;2.35;;;22.00;64.00;23.60;102106.00;;;;5070480;28;20281;-75
2023/10/08 00:09:53;;;;;;;9.63;3.05;;;22.00;64.10;23.50;102104.00;;;;5073490;28;20690;-76
2023/10/08 00:12:20;;;;;;;5.95;2.50;;;22.00;64.00;23.60;102112.00;;;;5089565;28;20235;-76
2023/10/08 00:14:52;;;;;;;8.68;2.80;;;22.00;64.00;23.60;102133.00;;;;5083283;28;20230;-76
2023/10/08 00:17:19;;;;;;;7.57;2.55;;;22.00;64.10;23.50;102142.00;;;;5079306;28;20202;-76
2023/10/08 00:19:52;;;;;;;8.57;3.08;;;22.00;64.10;23.50;102132.00;;;;5088127;28;20700;-76
2023/10/08 00:22:19;;;;;;;8.48;2.85;;;21.90;64.20;23.50;102129.00;;;;5089720;28;20197;-76
2023/10/08 00:24:49;;;;;;;7.85;2.70;;;21.90;64.20;23.50;102142.00;;;;5075321;28;20226;-76
2023/10/08 00:27:17;;;;;;;8.32;2.65;;;21.90;64.30;23.50;102127.00;;;;5088315;28;20200;-76
2023/10/08 00:29:45;;;;;;;6.95;2.75;;;21.90;64.40;23.50;102145.00;;;;5084971;28;20226;-76
2023/10/08 00:32:15;;;;;;;7.22;3.30;;;21.90;64.40;23.50;102137.00;;;;5068374;28;20202;-76
2023/10/08 00:34:43;;;;;;;6.07;2.35;;;21.90;64.50;23.50;102133.00;;;;5068378;28;20211;-76
2023/10/08 00:37:14;;;;;;;7.68;3.05;;;21.80;64.50;23.40;102121.00;;;;5073728;28;20575;-76
2023/10/08 00:39:42;;;;;;;15.73;2.78;;;21.90;64.60;23.50;102130.00;;;;5088298;28;20194;-76
2023/10/08 00:42:09;;;;;;;7.75;2.90;;;21.90;64.70;23.50;102129.00;;;;5084878;28;20218;-76
2023/10/08 00:44:47;;;;;;;9.07;2.65;;;21.80;64.60;23.50;102127.00;;;;5068359;28;20574;-76
2023/10/08 00:47:18;;;;;;;8.90;2.70;;;21.80;64.70;23.50;102128.00;;;;5068551;28;20199;-77
2023/10/08 00:50:03;;;;;;;11.38;3.83;;;21.80;64.70;23.40;102108.00;;;;5071507;28;20460;-76
2023/10/08 00:52:38;;;;;;;9.27;3.22;;;21.80;65.40;23.50;102102.00;;;;5068740;28;20201;-77
2023/10/08 00:55:14;;;;;;;9.52;3.08;;;21.80;65.40;23.50;102107.00;;;;5070799;28;20243;-76
2023/10/08 00:57:47;;;;;;;7.88;2.55;;;21.80;65.20;23.50;102105.00;;;;5072328;28;20189;-76
2023/10/08 01:00:22;;;;;;;7.22;2.53;;;21.80;65.10;23.50;102101.00;;;;5072699;28;20610;-77
2023/10/08 01:02:59;;;;;;;6.35;2.78;;;21.80;65.00;23.50;102090.00;;;;5076797;28;20228;-77
2023/10/08 01:05:42;;;;;;;10.40;2.92;;;21.90;65.00;23.40;102084.00;;;;5077827;28;20198;-77
2023/10/08 01:08:14;;;;;;;8.77;2.50;;;21.90;65.00;23.40;102082.00;;;;5076534;28;20301;-77
2023/10/08 01:10:43;;;;;;;5.85;2.92;;;21.90;65.00;23.40;102084.00;;;;5073632;28;20572;-77
2023/10/08 01:13:15;;;;;;;6.85;2.53;;;21.80;64.80;23.40;102103.00;;;;5073129;28;20240;-76
2023/10/08 01:15:44;;;;;;;9.85;3.33;;;21.80;64.80;23.40;102103.00;;;;5074748;28;20312;-77
2023/10/08 01:18:15;;;;;;;6.20;2.88;;;21.80;64.80;23.40;102106.00;;;;5074018;28;20191;-76
2023/10/08 01:20:51;;;;;;;10.10;3.58;;;21.80;64.90;23.40;102096.00;;;;5068592;28;20199;-76
2023/10/08 01:23:22;;;;;;;6.53;2.88;;;21.80;64.90;23.40;102088.00;;;;5088561;28;20194;-76
2023/10/08 01:26:10;;;;;;;7.10;2.53;;;21.70;64.90;23.40;102082.00;;;;5089818;28;20206;-76
2023/10/08 01:28:37;;;;;;;9.45;3.30;;;21.70;64.90;23.40;102090.00;;;;5077743;28;20298;-77
2023/10/08 01:31:06;;;;;;;6.95;2.33;;;21.70;65.00;23.30;102089.00;;;;5078734;28;20199;-77
2023/10/08 01:33:37;;;;;;;9.45;3.13;;;21.70;65.00;23.30;102095.00;;;;5075903;28;20264;-77
2023/10/08 01:36:08;;;;;;;6.07;2.28;;;21.70;65.00;23.30;102098.00;;;;5073419;28;20798;-77
2023/10/08 01:38:41;;;;;;;7.03;2.40;;;21.70;65.00;23.30;102104.00;;;;5069027;28;20226;-77
2023/10/08 01:41:18;;;;;;;7.78;3.00;;;21.70;65.10;23.30;102109.00;;;;5077476;28;20736;-77
2023/10/08 01:43:45;;;;;;;9.27;3.08;;;21.70;65.10;23.30;102114.00;;;;5067819;28;20187;-77
2023/10/08 01:46:12;;;;;;;6.82;3.33;;;21.70;65.10;23.30;102104.00;;;;5080069;28;20194;-77
2023/10/08 01:48:39;;;;;;;7.57;2.60;;;21.60;65.10;23.30;102107.00;;;;5073047;28;20202;-77
2023/10/08 01:51:11;;;;;;;8.15;3.25;;;21.60;65.10;23.20;102121.00;;;;5074004;28;20194;-77
2023/10/08 01:53:39;;;;;;;7.95;2.30;;;21.60;65.20;23.20;102115.00;;;;5080243;28;20190;-78
2023/10/08 01:56:07;;;;;;;8.38;2.72;;;21.60;65.20;23.20;102130.00;;;;5089770;28;20252;-77
2023/10/08 01:58:34;;;;;;;7.20;3.08;;;21.50;65.20;23.20;102119.00;;;;5092241;28;20293;-77
2023/10/08 02:01:01;;;;;;;8.68;2.92;;;21.60;65.30;23.20;102127.00;;;;5080321;28;20638;-77
2023/10/08 02:03:28;;;;;;;5.97;2.80;;;21.50;65.20;23.20;102145.00;;;;5089953;28;20207;-77
2023/10/08 02:05:58;;;;;;;10.93;2.97;;;21.50;65.30;23.10;102141.00;;;;5078856;28;20194;-77
2023/10/08 02:08:26;;;;;;;6.63;2.75;;;21.50;65.30;23.10;102155.00;;;;5073414;28;20205;-77
2023/10/08 02:10:56;;;;;;;4.95;1.80;;;21.50;65.30;23.10;102158.00;;;;5071602;28;20191;-77
2023/10/08 02:13:23;;;;;;;7.63;3.20;;;21.50;65.50;23.10;102154.00;;;;5071542;28;20206;-77
2023/10/08 02:15:52;;;;;;;6.78;3.03;;;21.50;65.40;23.10;102151.00;;;;5071056;28;20606;-77
2023/10/08 02:18:23;;;;;;;5.40;2.28;;;21.40;65.40;23.10;102154.00;;;;5071414;28;20253;-77
2023/10/08 02:20:50;;;;;;;6.00;2.15;;;21.50;65.60;23.10;102146.00;;;;5077556;28;20203;-77
2023/10/08 02:23:17;;;;;;;4.70;2.17;;;21.40;65.50;23.10;102169.00;;;;5082705;28;20205;-77
2023/10/08 02:25:45;;;;;;;5.78;2.75;;;21.40;65.50;23.10;102167.00;;;;5072189;28;20718;-77
2023/10/08 02:28:15;;;;;;;7.80;2.92;;;21.40;65.50;23.00;102186.00;;;;5070253;28;20695;-77
2023/10/08 02:30:43;;;;;;;7.25;3.08;;;21.40;65.50;23.00;102142.00;;;;5073611;28;20201;-77
2023/10/08 02:33:15;;;;;;;6.35;2.83;;;21.40;65.60;23.00;102164.00;;;;5077166;28;20223;-77
2023/10/08 02:35:43;;;;;;;5.53;2.42;;;21.40;65.50;23.00;102126.00;;;;5069907;28;20199;-77
2023/10/08 02:38:12;;;;;;;10.82;2.80;;;21.40;65.60;23.00;102142.00;;;;5081323;28;20208;-77
2023/10/08 02:40:44;;;;;;;6.95;2.92;;;21.30;65.60;23.00;102154.00;;;;5086810;28;20292;-77
2023/10/08 02:43:14;;;;;;;6.53;2.58;;;21.40;65.70;22.90;102141.00;;;;5089449;28;20205;-77
2023/10/08 02:45:41;;;;;;;6.75;2.85;;;21.30;66.40;22.90;102178.00;;;;5089253;28;20686;-77
2023/10/08 02:48:12;;;;;;;6.50;2.40;;;21.30;65.80;22.90;102152.00;;;;5079165;28;20194;-77
2023/10/08 02:50:40;;;;;;;9.57;2.97;;;21.30;65.80;22.90;102145.00;;;;5076813;28;20198;-77
2023/10/08 02:53:10;;;;;;;5.22;2.15;;;21.30;65.80;22.90;102127.00;;;;5071304;28;20710;-77
2023/10/08 02:55:43;;;;;;;7.03;2.40;;;21.30;65.90;22.90;102164.00;;;;5078090;28;20191;-77
2023/10/08 02:58:14;;;;;;;8.05;2.72;;;21.30;65.90;22.90;102156.00;;;;5071805;28;20195;-77
2023/10/08 03:00:42;;;;;;;6.53;2.75;;;21.30;65.90;22.90;102158.00;;;;5070211;28;20191;-76
2023/10/08 03:03:15;;;;;;;4.50;2.30;;;21.30;66.00;22.90;102165.00;;;;5070652;28;20218;-77
2023/10/08 03:05:46;;;;;;;5.40;2.42;;;21.20;66.00;22.80;102139.00;;;;5070897;28;20236;-78
2023/10/08 03:08:19;;;;;;;5.00;2.92;;;21.20;65.90;22.90;102128.00;;;;5072177;28;20854;-77
2023/10/08 03:10:48;;;;;;;7.70;2.92;;;21.30;66.00;22.90;102159.00;;;;5078627;28;20191;-77
2023/10/08 03:13:17;;;;;;;7.43;3.13;;;21.20;66.00;22.80;102159.00;;;;5090831;28;20266;-77
2023/10/08 03:15:57;;;;;;;6.63;2.58;;;21.20;66.00;22.80;102166.00;;;;5081975;28;20222;-77
2023/10/08 03:18:25;;;;;;;5.95;2.60;;;21.20;66.00;22.80;102167.00;;;;5075929;28;20195;-77
2023/10/08 03:20:52;;;;;;;7.53;2.50;;;21.20;66.00;22.80;102167.00;;;;5069182;28;20655;-77
2023/10/08 03:23:33;;;;;;;7.22;2.70;;;21.20;66.00;22.80;102180.00;;;;5073223;28;20318;-77
2023/10/08 03:26:09;;;;;;;6.00;2.72;;;21.20;66.10;22.80;102170.00;;;;5080606;28;20225;-77
2023/10/08 03:28:41;;;;;;;7.47;3.20;;;21.10;66.10;22.80;102158.00;;;;5078498;28;20201;-77
2023/10/08 03:31:14;;;;;;;5.93;2.47;;;21.20;66.20;22.80;102157.00;;;;5070238;28;21031;-77
2023/10/08 03:33:43;;;;;;;4.97;2.10;;;21.10;66.10;22.80;102158.00;;;;5073754;28;20622;-77
2023/10/08 03:36:14;;;;;;;6.10;2.38;;;21.20;66.20;22.80;102145.00;;;;5079965;28;20230;-77
2023/10/08 03:38:51;;;;;;;5.15;2.25;;;21.20;66.30;22.80;102139.00;;;;5085628;28;20194;-76
2023/10/08 03:41:20;;;;;;;6.35;2.85;;;21.10;66.20;22.70;102144.00;;;;5079970;28;20195;-77
2023/10/08 03:43:56;;;;;;;6.25;3.10;;;21.10;66.20;22.70;102163.00;;;;5081810;28;20294;-77
2023/10/08 03:46:26;;;;;;;8.15;3.63;;;21.10;66.30;22.70;102191.00;;;;5088827;28;20202;-77
2023/10/08 03:48:57;;;;;;;7.07;2.70;;;21.10;66.20;22.70;102201.00;;;;5075275;28;20216;-77
2023/10/08 03:51:27;;;;;;;5.82;2.88;;;21.10;66.30;22.70;102196.00;;;;5089218;28;20198;-77
2023/10/08 03:54:10;;;;;;;8.13;3.13;;;21.10;66.30;22.70;102200.00;;;;5088564;28;20256;-77
2023/10/08 03:56:37;;;;;;;4.40;2.17;;;21.10;66.40;22.70;102199.00;;;;5089096;28;20229;-77
2023/10/08 03:59:12;;;;;;;5.90;2.60;;;21.10;66.40;22.70;102207.00;;;;5073201;28;20202;-77
2023/10/08 04:01:39;;;;;;;6.45;2.13;;;21.10;66.40;22.70;102210.00;;;;5068706;28;20230;-77
2023/10/08 04:04:12;;;;;;;5.88;2.95;;;21.00;66.40;22.70;102204.00;;;;5068679;28;20203;-77
2023/10/08 04:06:39;;;;;;;9.68;3.55;;;21.10;66.50;22.70;102212.00;;;;5069576;28;20199;-77
2023/10/08 04:09:16;;;;;;;7.95;3.70;;;21.10;66.50;22.70;102212.00;;;;5070217;28;20260;-77
2023/10/08 04:12:03;;;;;;;6.95;2.95;;;21.00;66.50;22.70;102211.00;;;;5068426;28;20199;-77
2023/10/08 04:14:31;;;;;;;7.20;2.20;;;21.00;66.50;22.70;102240.00;;;;5083748;28;20209;-77
2023/10/08 04:17:01;;;;;;;6.32;2.85;;;21.00;66.40;22.70;102239.00;;;;5076726;28;20261;-76
2023/10/08 04:19:28;;;;;;;6.85;2.55;;;21.00;66.40;22.70;102226.00;;;;5068928;28;20210;-77
2023/10/08 04:21:55;;;;;;;5.15;2.28;;;21.00;66.50;22.60;102235.00;;;;5068937;28;20230;-76
2023/10/08 04:24:34;;;;;;;5.90;3.10;;;21.00;66.50;22.60;102233.00;;;;5073223;28;20209;-77
2023/10/08 04:27:03;;;;;;;7.28;2.40;;;21.00;66.50;22.60;102236.00;;;;5068548;28;20540;-77
2023/10/08 04:29:32;;;;;;;5.05;2.13;;;21.00;66.50;22.60;102246.00;;;;5084686;28;20725;-76
2023/10/08 04:32:07;;;;;;;4.25;2.13;;;21.00;66.50;22.60;102230.00;;;;5088461;28;20248;-77
2023/10/08 04:34:35;;;;;;;6.35;2.78;;;21.00;66.50;22.60;102237.00;;;;5076683;28;20217;-77
2023/10/08 04:37:04;;;;;;;7.68;3.17;;;21.00;66.50;22.60;102235.00;;;;5069289;28;20231;-77
2023/10/08 04:39:35;;;;;;;4.40;2.08;;;21.00;66.60;22.60;102234.00;;;;5067970;28;20244;-77
2023/10/08 04:42:10;;;;;;;5.53;2.50;;;21.00;66.60;22.60;102229.00;;;;5068764;28;20203;-76
2023/10/08 04:44:40;;;;;;;3.30;1.98;;;20.90;66.60;22.60;102229.00;;;;5074507;28;20293;-77
2023/10/08 04:47:08;;;;;;;7.32;3.05;;;20.90;66.60;22.60;102233.00;;;;5069718;28;20201;-77
2023/10/08 04:49:37;;;;;;;6.45;2.30;;;20.90;66.60;22.60;102227.00;;;;5068002;28;20194;-77
2023/10/08 04:52:13;;;;;;;7.40;2.97;;;20.90;66.70;22.50;102211.00;;;;5074649;28;20248;-77
2023/10/08 04:54:50;;;;;;;5.85;2.70;;;20.90;66.70;22.50;102221.00;;;;5070003;28;20195;-77
2023/10/08 04:57:22;;;;;;;7.20;2.88;;;20.90;66.80;22.60;102218.00;;;;5069448;28;20718;-77
2023/10/08 04:59:51;;;;;;;5.78;3.00;;;20.90;66.80;22.60;102219.00;;;;5082307;28;20285;-77
2023/10/08 05:02:33;;;;;;;11.00;3.30;;;20.90;66.90;22.60;102242.00;;;;5070332;28;20219;-77
2023/10/08 05:05:22;;;;;;;6.97;3.28;;;20.90;66.90;22.60;102252.00;;;;5068626;28;20202;-77
2023/10/08 05:08:16;;;;;;;5.60;3.08;;;20.90;66.90;22.60;102249.00;;;;5071714;28;20240;-77
2023/10/08 05:11:01;;;;;;;9.98;3.22;;;20.90;67.00;22.50;102254.00;;;;5079379;28;20672;-77
2023/10/08 05:13:34;;;;;;;11.05;4.55;;;20.90;67.00;22.50;102252.00;;;;5085966;28;20692;-76
2023/10/08 05:16:11;;;;;;;9.63;3.67;;;20.90;67.00;22.50;102251.00;;;;5072227;28;20614;-77
2023/10/08 05:21:28;;;;;;;6.80;3.42;;;20.90;67.00;22.50;102235.00;;;;5034718;28;20285;-76
2023/10/08 05:24:08;;;;;;;6.95;3.75;;;20.90;66.90;22.50;102239.00;;;;5068129;28;20206;-77
2023/10/08 05:26:45;;;;;;;11.52;3.97;;;20.90;66.90;22.50;102250.00;;;;5067306;28;22067;-76
2023/10/08 05:29:39;;;;;;;7.18;3.33;;;20.90;66.90;22.50;102256.00;;;;5081257;28;20576;-76
2023/10/08 05:32:38;;;;;;;7.43;3.10;;;20.90;66.80;22.50;102263.00;;;;5084448;28;20205;-76
2023/10/08 05:38:02;;;;;;;9.35;3.53;;;20.80;66.70;22.40;102286.00;;;;5085200;28;20318;-76
2023/10/08 05:43:33;;;;;;;8.85;2.70;;;20.80;66.70;22.40;102270.00;;;;5071415;28;20202;-76
2023/10/08 05:46:35;;;;;;;8.35;2.72;;;20.80;66.70;22.40;102274.00;;;;5073917;28;20248;-76
2023/10/08 05:49:01;;;;;;;8.77;3.15;;;20.80;66.60;22.30;102274.00;;;;5071380;28;20293;-76
2023/10/08 05:51:44;;;;;;;10.52;3.28;;;20.80;66.60;22.30;102264.00;;;;5081693;28;20507;-77
2023/10/08 05:54:24;;;;;;;19.38;3.60;;;20.70;66.50;22.30;102273.00;;;;5090226;28;20663;-76
2023/10/08 05:57:06;;;;;;;15.70;3.55;;;20.70;66.50;22.30;102278.00;;;;5070819;28;20311;-76
2023/10/08 05:59:38;;;;;;;8.02;2.90;;;20.70;66.50;22.30;102299.00;;;;5086577;28;20408;-76
2023/10/08 06:02:26;;;;;;;11.25;3.15;;;20.70;66.50;22.20;102300.00;;;;5071172;28;20597;-76
2023/10/08 06:05:19;;;;;;;7.55;3.40;;;20.60;66.30;22.10;102295.00;;;;5072626;28;20195;-77
2023/10/08 06:07:48;;;;;;;13.90;3.17;;;20.60;66.00;22.00;102289.00;;;;5071310;28;20236;-77
2023/10/08 06:10:41;;;;;;;5.80;3.17;;;20.50;65.80;22.00;102279.00;;;;5088913;28;20195;-77
2023/10/08 06:13:13;;;;;;;8.20;3.08;;;20.50;65.70;21.90;102271.00;;;;5071379;28;20294;-77
2023/10/08 06:15:48;;;;;;;13.88;3.53;;;20.40;65.60;21.80;102285.00;;;;5080101;28;20201;-77
2023/10/08 06:18:15;;;;;;;6.65;2.30;;;20.30;65.50;21.80;102303.00;;;;5075983;28;21001;-77
2023/10/08 06:20:44;;;;;;;5.95;2.70;;;20.20;65.50;21.70;102316.00;;;;5074578;28;20198;-76
2023/10/08 06:23:13;;;;;;;6.35;2.50;;;20.10;65.60;21.70;102329.00;;;;5080378;28;20202;-77
2023/10/08 06:25:54;;;;;;;7.35;2.22;;;20.10;65.50;21.60;102334.00;;;;5080687;28;20190;-76
2023/10/08 06:28:21;;;;;;;9.55;2.05;;;20.00;65.40;21.50;102345.00;;;;5071432;28;20221;-76
2023/10/08 06:30:53;;;;;;;11.57;1.80;;;20.00;65.40;21.40;102347.00;;;;5073217;28;20240;-76
2023/10/08 06:33:22;;;;;;;4.82;2.42;;;19.90;65.30;21.40;102341.00;;;;5074201;28;20203;-76
2023/10/08 06:36:01;;;;;;;4.82;1.48;;;19.80;65.20;21.30;102342.00;;;;5079967;28;20213;-76
2023/10/08 06:38:30;;;;;;;3.92;1.48;;;19.80;65.30;21.30;102346.00;;;;5071218;28;20228;-76
2023/10/08 06:40:59;;;;;;;3.05;1.30;;;19.70;65.20;21.30;102352.00;;;;5077286;28;20203;-76
2023/10/08 06:43:27;;;;;;;3.30;1.10;;;19.70;65.30;21.20;102348.00;;;;5073252;28;20219;-76
2023/10/08 06:45:58;;;;;;;1.60;1.10;;;19.60;65.10;21.20;102354.00;;;;5076794;28;20195;-76
2023/10/08 06:48:29;;;;;;;3.63;1.30;;;19.60;65.00;21.10;102354.00;;;;5075611;28;20190;-76
2023/10/08 06:50:58;;;;;;;1.85;0.80;;;19.50;64.80;21.10;102349.00;;;;5080401;28;20195;-76
2023/10/08 06:53:29;;;;;;;3.13;1.30;;;19.50;64.80;21.00;102344.00;;;;5080194;28;20716;-76
2023/10/08 06:55:57;;;;;;;3.17;1.45;;;19.40;64.70;21.00;102356.00;;;;5071276;28;20197;-78
2023/10/08 06:58:24;;;;;;;4.50;1.42;;;19.40;64.80;21.00;102354.00;;;;5079125;28;20314;-76
2023/10/08 07:00:55;;;;;;;6.18;1.70;;;19.40;64.90;20.90;102367.00;;;;5081508;28;20273;-76
2023/10/08 07:03:22;;;;;;;3.15;1.02;;;19.30;64.80;20.90;102367.00;;;;5073324;28;20566;-77
2023/10/08 07:05:59;;;;;;;2.55;1.17;;;19.30;64.80;20.90;102363.00;;;;5089412;28;20206;-77
2023/10/08 07:08:31;;;;;;;2.55;1.25;;;19.20;64.80;20.80;102370.00;;;;5084028;28;20686;-77
2023/10/08 07:11:01;;;;;;;2.88;1.15;;;19.20;64.80;20.80;102372.00;;;;5082507;28;20198;-77
2023/10/08 07:13:29;;;;;;;4.72;1.88;;;19.20;64.80;20.80;102375.00;;;;5077914;28;20201;-77
2023/10/08 07:15:57;;;;;;;5.05;1.35;;;19.20;64.90;20.80;102369.00;;;;5079127;28;20201;-78
2023/10/08 07:18:25;;;;;;;3.88;1.20;;;19.20;64.80;20.80;102366.00;;;;5072803;28;20280;-78
2023/10/08 07:20:54;;;;;;;5.85;1.20;;;19.10;64.80;20.80;102382.00;;;;5074844;28;20225;-77
2023/10/08 07:23:26;;;;;;;4.28;1.30;;;19.10;64.90;20.80;102381.00;;;;5089241;28;20190;-76
2023/10/08 07:26:10;;;;;;;7.45;1.55;;;19.10;64.90;20.80;102375.00;;;;5076191;28;20214;-77
2023/10/08 07:28:39;;;;;;;3.50;1.00;;;19.10;64.90;20.80;102366.00;;;;5069483;28;20222;-76
2023/10/08 07:31:09;;;;;;;4.88;1.55;;;19.10;65.00;20.80;102375.00;;;;5074189;28;20635;-77
2023/10/08 07:33:36;;;;;;;2.28;1.10;;;19.10;65.00;20.80;102385.00;;;;5078435;28;20218;-78
2023/10/08 07:36:11;;;;;;;2.90;1.20;;;19.10;65.10;20.80;102386.00;;;;5077177;28;20226;-75
2023/10/08 07:38:40;;;;;;;1.40;1.00;;;19.10;65.20;20.90;102393.00;;;;5086655;28;20213;-76
2023/10/08 07:41:08;;;;;;;4.38;1.30;;;19.20;65.20;20.90;102389.00;;;;5069820;28;20195;-75
2023/10/08 07:43:35;;;;;;;2.45;1.27;;;19.20;65.10;20.90;102395.00;;;;5073869;28;20187;-76
2023/10/08 07:46:02;;;;;;;2.63;0.70;;;19.20;65.10;20.90;102385.00;;;;5073692;28;20210;-76
2023/10/08 07:48:30;;;;;;;1.75;1.13;;;19.20;65.10;20.90;102396.00;;;;5071930;28;20691;-75
2023/10/08 07:50:58;;;;;;;3.78;1.60;;;19.20;65.10;20.90;102392.00;;;;5073827;28;20190;-75
2023/10/08 07:53:37;;;;;;;3.00;1.17;;;19.20;65.00;20.90;102389.00;;;;5072719;28;20656;-75
2023/10/08 07:56:07;;;;;;;1.83;0.90;;;19.20;65.10;20.90;102400.00;;;;5074856;28;20202;-75
2023/10/08 07:58:36;;;;;;;4.50;1.17;;;19.20;65.00;20.90;102408.00;;;;5071817;28;20227;-76
2023/10/08 08:01:06;;;;;;;4.68;1.30;;;19.20;65.00;20.90;102412.00;;;;5068797;28;20231;-76
2023/10/08 08:03:36;;;;;;;6.60;1.27;;;19.30;65.00;20.90;102423.00;;;;5077181;28;20737;-76
2023/10/08 08:06:05;;;;;;;2.25;1.10;;;19.20;64.90;20.90;102437.00;;;;5089921;28;20202;-76
2023/10/08 08:08:33;;;;;;;2.65;1.20;;;19.30;64.90;21.00;102449.00;;;;5076348;28;20213;-76
2023/10/08 08:11:05;;;;;;;3.40;1.27;;;19.30;64.90;21.00;102450.00;;;;5088936;28;20199;-76
2023/10/08 08:13:33;;;;;;;4.05;1.30;;;19.30;65.00;21.00;102444.00;;;;5078311;28;20197;-76
2023/10/08 08:16:09;;;;;;;3.25;1.13;;;19.30;64.80;21.00;102441.00;;;;5068430;28;20203;-76
2023/10/08 08:18:38;;;;;;;3.03;1.45;;;19.30;64.80;21.00;102451.00;;;;5068535;28;20719;-77
2023/10/08 08:21:14;;;;;;;2.38;1.50;;;19.30;64.70;20.90;102442.00;;;;5069870;28;20218;-76
2023/10/08 08:23:47;;;;;;;2.03;1.17;;;19.30;64.60;21.00;102448.00;;;;5072781;28;20190;-77
2023/10/08 08:26:26;;;;;;;2.67;0.98;;;19.30;64.60;21.00;102453.00;;;;5076606;28;20209;-76
2023/10/08 08:28:56;;;;;;;1.70;1.15;;;19.30;64.60;21.00;102453.00;;;;5089050;28;20274;-76
2023/10/08 08:31:26;;;;;;;1.67;1.23;;;19.30;64.70;21.00;102459.00;;;;5078796;28;20260;-76
2023/10/08 08:33:52;;;;;;;5.97;1.80;;;19.30;64.80;21.10;102457.00;;;;5072960;28;20214;-77
2023/10/08 08:36:20;;;;;;;2.05;1.02;;;19.30;64.90;21.10;102460.00;;;;5077968;28;20190;-76
2023/10/08 08:38:47;;;;;;;3.35;1.33;;;19.40;65.00;21.10;102471.00;;;;5079697;28;20223;-76
2023/10/08 08:41:17;;;;;;;2.50;1.75;;;19.40;64.90;21.20;102473.00;;;;5072456;28;20694;-77
2023/10/08 08:43:48;;;;;;;2.47;1.25;;;19.40;65.00;21.20;102481.00;;;;5075487;28;20263;-77
2023/10/08 08:46:16;;;;;;;2.40;1.45;;;19.50;64.90;21.20;102483.00;;;;5088887;28;20330;-77
2023/10/08 08:48:48;;;;;;;2.13;1.30;;;19.50;64.80;21.30;102485.00;;;;5086688;28;20193;-77
2023/10/08 08:51:15;;;;;;;3.92;1.45;;;19.50;64.70;21.30;102484.00;;;;5076575;28;20197;-76
2023/10/08 08:53:42;;;;;;;1.25;1.08;;;19.60;64.50;21.30;102493.00;;;;5086050;28;20201;-77
2023/10/08 08:56:10;;;;;;;1.45;0.90;;;19.60;64.30;21.30;102491.00;;;;5086527;28;20577;-77
2023/10/08 08:58:39;;;;;;;1.60;1.20;;;19.60;64.30;21.30;102486.00;;;;5072808;28;20222;-77
2023/10/08 09:01:12;;;;;;;2.75;1.00;;;19.60;64.10;21.30;102485.00;;;;5066203;28;20315;-77
2023/10/08 09:03:39;;;;;;;1.40;1.00;;;19.60;64.00;21.40;102479.00;;;;5079429;28;20210;-77
2023/10/08 09:06:07;;;;;;;2.65;1.00;;;19.70;64.10;21.40;102479.00;;;;5087826;28;20201;-76
2023/10/08 09:08:36;;;;;;;4.00;1.30;;;19.70;64.10;21.40;102474.00;;;;5087315;28;20209;-78
2023/10/08 09:11:04;;;;;;;2.65;1.40;;;19.70;64.00;21.40;102481.00;;;;5078822;28;20210;-77
2023/10/08 09:13:34;;;;;;;1.52;0.93;;;19.70;64.00;21.40;102474.00;;;;5072112;28;20578;-77
2023/10/08 09:16:12;;;;;;;1.63;1.13;;;19.80;63.90;21.40;102463.00;;;;5068442;28;20197;-78
2023/10/08 09:18:39;;;;;;;2.15;1.33;;;19.80;63.70;21.50;102466.00;;;;5075517;28;20218;-78
2023/10/08 09:21:12;;;;;;;12.55;1.08;;;19.80;63.80;21.50;102459.00;;;;5079911;28;20206;-77
2023/10/08 09:23:47;;;;;;;1.88;1.05;;;19.80;63.80;21.50;102460.00;;;;5075269;28;20201;-78
2023/10/08 09:26:14;;;;;;;3.22;1.08;;;19.80;63.90;21.60;102458.00;;;;5078380;28;20557;-78
2023/10/08 09:28:47;;;;;;;1.45;0.77;;;19.90;64.10;21.70;102460.00;;;;5084080;28;20190;-78
2023/10/08 09:31:14;;;;;;;2.15;1.05;;;19.90;64.10;21.70;102469.00;;;;5072898;28;20672;-78
2023/10/08 09:33:42;;;;;;;2.03;1.00;;;20.00;64.00;21.80;102471.00;;;;5084838;28;20218;-78
2023/10/08 09:36:18;;;;;;;1.40;0.70;;;20.00;63.90;21.80;102471.00;;;;5082898;28;20582;-79
2023/10/08 09:38:48;;;;;;;1.67;1.17;;;20.10;63.80;21.80;102478.00;;;;5082800;28;20308;-77
2023/10/08 09:41:16;;;;;;;2.85;0.98;;;20.10;63.70;21.90;102484.00;;;;5069518;28;20653;-77
2023/10/08 09:43:45;;;;;;;1.85;0.70;;;20.20;63.70;21.90;102480.00;;;;5071801;28;20189;-77
2023/10/08 09:46:19;;;;;;;2.30;1.50;;;20.20;63.60;21.90;102485.00;;;;5071199;28;20545;-77
2023/10/08 09:48:52;;;;;;;1.77;1.13;;;20.20;63.50;21.90;102486.00;;;;5068690;28;20194;-78
2023/10/08 09:51:21;;;;;;;1.52;1.10;;;20.30;63.40;22.00;102484.00;;;;5065860;28;20202;-78
2023/10/08 09:53:59;;;;;;;2.50;1.30;;;20.30;63.30;21.90;102470.00;;;;5080289;28;20732;-78
2023/10/08 09:56:33;;;;;;;4.47;1.38;;;20.30;63.30;22.00;102469.00;;;;5067040;28;20209;-78
2023/10/08 09:59:01;;;;;;;2.03;1.30;;;20.30;63.10;22.00;102463.00;;;;5077170;28;20223;-77
2023/10/08 10:01:31;;;;;;;3.17;1.40;;;20.30;63.10;22.00;102472.00;;;;5070903;28;20230;-78
2023/10/08 10:03:59;;;;;;;2.70;1.40;;;20.30;63.10;22.00;102475.00;;;;5072964;28;20272;-78
2023/10/08 10:06:29;;;;;;;2.15;1.83;;;20.40;63.20;22.00;102482.00;;;;5083144;28;20638;-78
2023/10/08 10:08:58;;;;;;;3.03;1.58;;;20.40;63.20;22.10;102481.00;;;;5068277;28;20191;-77
2023/10/08 10:11:27;;;;;;;3.35;1.45;;;20.40;63.20;22.10;102473.00;;;;5069137;28;20252;-78
2023/10/08 10:14:00;;;;;;;3.28;1.60;;;20.40;63.20;22.10;102462.00;;;;5072488;28;20194;-77
2023/10/08 10:16:28;;;;;;;2.83;1.77;;;20.50;63.20;22.10;102469.00;;;;5072898;28;20609;-77
2023/10/08 10:18:58;;;;;;;3.40;1.88;;;20.50;63.20;22.10;102474.00;;;;5072090;28;20219;-77
2023/10/08 10:21:34;;;;;;;1.60;1.42;;;20.50;63.20;22.10;102471.00;;;;5071742;28;20313;-77
2023/10/08 10:24:05;;;;;;;3.53;2.10;;;20.50;63.00;22.20;102467.00;;;;5075934;28;20195;-77
2023/10/08 10:26:35;;;;;;;3.13;2.00;;;20.50;63.00;22.20;102480.00;;;;5069098;28;20740;-76
2023/10/08 10:29:22;;;;;;;4.10;1.50;;;20.50;63.00;22.10;102479.00;;;;5069092;28;20206;-77
2023/10/08 10:31:53;;;;;;;2.22;1.75;;;20.50;62.90;22.20;102487.00;;;;5087962;28;20189;-77
2023/10/08 10:34:24;;;;;;;2.10;1.85;;;20.60;63.10;22.20;102487.00;;;;5075863;28;20703;-78
2023/10/08 10:37:02;;;;;;;3.45;1.55;;;20.60;63.10;22.20;102489.00;;;;5074500;28;20194;-77
2023/10/08 10:39:32;;;;;;;3.45;1.98;;;20.60;63.20;22.20;102482.00;;;;5079371;28;20223;-77
2023/10/08 10:42:03;;;;;;;2.42;1.65;;;20.60;63.10;22.30;102481.00;;;;5070036;28;20238;-77
2023/10/08 10:44:31;;;;;;;1.70;1.42;;;20.60;63.10;22.30;102492.00;;;;5070501;28;20726;-76
2023/10/08 10:49:52;;;;;;;2.47;1.77;;;20.60;63.10;22.30;102494.00;;;;5070364;28;20683;-76
2023/10/08 10:52:44;;;;;;;1.98;1.50;;;20.70;63.20;22.30;102492.00;;;;5070878;28;20985;-76
2023/10/08 10:55:22;;;;;;;1.88;1.60;;;20.70;63.10;22.30;102486.00;;;;5083546;28;20202;-77
2023/10/08 10:57:55;;;;;;;2.40;1.75;;;20.70;63.00;22.30;102476.00;;;;5090458;28;20198;-77
2023/10/08 11:03:16;;;;;;;2.67;1.90;;;20.70;63.00;22.40;102471.00;;;;5069199;28;20202;-77
2023/10/08 11:05:51;;;;;;;3.05;1.73;;;20.80;63.10;22.40;102471.00;;;;5079455;28;20671;-76
2023/10/08 11:08:22;;;;;;;3.58;2.00;;;20.70;63.00;22.40;102473.00;;;;5088454;28;20197;-77
2023/10/08 11:10:51;;;;;;;2.70;1.80;;;20.80;63.80;22.40;102469.00;;;;5087130;28;20729;-76
2023/10/08 11:13:21;;;;;;;2.63;2.00;;;20.80;63.10;22.40;102468.00;;;;5078723;28;20255;-77
2023/10/08 11:15:51;;;;;;;2.33;1.90;;;20.80;63.00;22.40;102474.00;;;;5083608;28;20282;-76
2023/10/08 11:18:21;;;;;;;3.25;1.90;;;20.80;62.90;22.40;102476.00;;;;5075623;28;20316;-76
2023/10/08 11:20:54;;;;;;;2.80;1.85;;;20.80;62.90;22.40;102477.00;;;;5074726;28;20193;-77
2023/10/08 11:23:37;;;;;;;3.25;1.67;;;20.80;62.80;22.30;102478.00;;;;5076060;28;20285;-77